sensor_id;sensor_type;location;lat;lon;timestamp;temperature;humidity
45807;DHT22;31507;51.494;7.518;2023-12-07T00:01:07;2.10;99.90
45807;DHT22;31507;51.494;7.518;2023-12-07T00:03:32;2.10;99.90
45807;DHT22;31507;51.494;7.518;2023-12-07T00:05:58;2.10;99.90
45807;DHT22;31507;51.494;7.518;2023-12-07T00:08:23;2.00;99.90
45807;DHT22;31507;51.494;7.518;2023-12-07T00:10:49;2.00;99.90
45807;DHT22;31507;51.494;7.518;2023-12-07T00:13:14;2.00;99.90
45807;DHT22;31507;51.494;7.518;2023-12-07T00:15:40;2.00;99.90
45807;DHT22;31507;51.494;7.518;2023-12-07T00:18:05;2.00;99.90
45807;DHT22;31507;51.494;7.518;2023-12-07T00:20:33;1.90;99.90
45807;DHT22;31507;51.494;7.518;2023-12-07T00:22:59;2.00;99.90
45807;DHT22;31507;51.494;7.518;2023-12-07T00:25:25;1.90;99.90
45807;DHT22;31507;51.494;7.518;2023-12-07T00:27:50;1.90;99.90
45807;DHT22;31507;51.494;7.518;2023-12-07T00:30:16;1.80;99.90
45807;DHT22;31507;51.494;7.518;2023-12-07T00:32:42;1.80;99.90
45807;DHT22;31507;51.494;7.518;2023-12-07T00:35:12;1.80;99.90
45807;DHT22;31507;51.494;7.518;2023-12-07T00:37:37;1.70;99.90
45807;DHT22;31507;51.494;7.518;2023-12-07T00:40:03;1.60;99.90
45807;DHT22;31507;51.494;7.518;2023-12-07T00:42:29;1.60;99.90
45807;DHT22;31507;51.494;7.518;2023-12-07T00:44:55;1.60;99.90
45807;DHT22;31507;51.494;7.518;2023-12-07T00:47:20;1.60;99.90
45807;DHT22;31507;51.494;7.518;2023-12-07T00:49:46;1.50;99.90
45807;DHT22;31507;51.494;7.518;2023-12-07T00:52:12;1.50;99.90
45807;DHT22;31507;51.494;7.518;2023-12-07T00:54:38;1.50;99.90
45807;DHT22;31507;51.494;7.518;2023-12-07T00:57:04;1.50;99.90
45807;DHT22;31507;51.494;7.518;2023-12-07T00:59:30;1.50;99.90
45807;DHT22;31507;51.494;7.518;2023-12-07T01:02:17;1.50;99.90
45807;DHT22;31507;51.494;7.518;2023-12-07T01:04:42;1.60;99.90
45807;DHT22;31507;51.494;7.518;2023-12-07T01:07:08;1.60;99.90
45807;DHT22;31507;51.494;7.518;2023-12-07T01:09:33;1.60;99.90
45807;DHT22;31507;51.494;7.518;2023-12-07T01:12:01;1.60;99.90
45807;DHT22;31507;51.494;7.518;2023-12-07T01:14:26;1.60;99.90
45807;DHT22;31507;51.494;7.518;2023-12-07T01:16:52;1.60;99.90
45807;DHT22;31507;51.494;7.518;2023-12-07T01:19:17;1.60;99.90
45807;DHT22;31507;51.494;7.518;2023-12-07T01:21:43;1.60;99.90
45807;DHT22;31507;51.494;7.518;2023-12-07T01:24:09;1.60;99.90
45807;DHT22;31507;51.494;7.518;2023-12-07T01:26:34;1.70;99.90
45807;DHT22;31507;51.494;7.518;2023-12-07T01:29:00;1.60;99.90
45807;DHT22;31507;51.494;7.518;2023-12-07T01:31:25;1.60;99.90
45807;DHT22;31507;51.494;7.518;2023-12-07T01:33:51;1.60;99.90
45807;DHT22;31507;51.494;7.518;2023-12-07T01:36:16;1.70;99.90
45807;DHT22;31507;51.494;7.518;2023-12-07T01:38:42;1.70;99.90
45807;DHT22;31507;51.494;7.518;2023-12-07T01:41:08;1.60;99.90
45807;DHT22;31507;51.494;7.518;2023-12-07T01:43:34;1.60;99.90
45807;DHT22;31507;51.494;7.518;2023-12-07T01:45:59;1.60;99.90
45807;DHT22;31507;51.494;7.518;2023-12-07T01:48:25;1.60;99.90
45807;DHT22;31507;51.494;7.518;2023-12-07T01:50:54;1.60;99.90
45807;DHT22;31507;51.494;7.518;2023-12-07T01:53:21;1.50;99.90
45807;DHT22;31507;51.494;7.518;2023-12-07T01:55:46;1.50;99.90
45807;DHT22;31507;51.494;7.518;2023-12-07T01:58:12;1.50;99.90
45807;DHT22;31507;51.494;7.518;2023-12-07T02:00:39;1.50;99.90
45807;DHT22;31507;51.494;7.518;2023-12-07T02:03:05;1.50;99.90
45807;DHT22;31507;51.494;7.518;2023-12-07T02:05:31;1.60;99.90
45807;DHT22;31507;51.494;7.518;2023-12-07T02:07:57;1.60;99.90
45807;DHT22;31507;51.494;7.518;2023-12-07T02:10:23;1.50;99.90
45807;DHT22;31507;51.494;7.518;2023-12-07T02:12:49;1.50;99.90
45807;DHT22;31507;51.494;7.518;2023-12-07T02:15:14;1.50;99.90
45807;DHT22;31507;51.494;7.518;2023-12-07T02:20:39;1.50;99.90
45807;DHT22;31507;51.494;7.518;2023-12-07T02:23:03;1.50;99.90
45807;DHT22;31507;51.494;7.518;2023-12-07T02:25:36;1.50;99.90
45807;DHT22;31507;51.494;7.518;2023-12-07T02:28:05;1.50;99.90
45807;DHT22;31507;51.494;7.518;2023-12-07T02:30:30;1.50;99.90
45807;DHT22;31507;51.494;7.518;2023-12-07T02:32:56;1.50;99.90
45807;DHT22;31507;51.494;7.518;2023-12-07T02:35:21;1.50;99.90
45807;DHT22;31507;51.494;7.518;2023-12-07T02:37:50;1.50;99.90
45807;DHT22;31507;51.494;7.518;2023-12-07T02:40:21;1.50;99.90
45807;DHT22;31507;51.494;7.518;2023-12-07T02:42:47;1.40;99.90
45807;DHT22;31507;51.494;7.518;2023-12-07T02:45:13;1.40;99.90
45807;DHT22;31507;51.494;7.518;2023-12-07T02:47:38;1.40;99.90
45807;DHT22;31507;51.494;7.518;2023-12-07T02:50:05;1.40;99.90
45807;DHT22;31507;51.494;7.518;2023-12-07T02:52:31;1.40;99.90
45807;DHT22;31507;51.494;7.518;2023-12-07T02:54:56;1.30;99.90
45807;DHT22;31507;51.494;7.518;2023-12-07T02:57:22;1.30;99.90
45807;DHT22;31507;51.494;7.518;2023-12-07T02:59:47;1.20;99.90
45807;DHT22;31507;51.494;7.518;2023-12-07T03:02:13;1.10;99.90
45807;DHT22;31507;51.494;7.518;2023-12-07T03:04:38;1.00;99.90
45807;DHT22;31507;51.494;7.518;2023-12-07T03:07:04;0.90;99.90
45807;DHT22;31507;51.494;7.518;2023-12-07T03:09:29;0.80;99.90
45807;DHT22;31507;51.494;7.518;2023-12-07T03:11:55;0.80;99.90
45807;DHT22;31507;51.494;7.518;2023-12-07T03:14:20;0.70;99.90
45807;DHT22;31507;51.494;7.518;2023-12-07T03:16:46;0.60;99.90
45807;DHT22;31507;51.494;7.518;2023-12-07T03:19:11;0.50;99.90
45807;DHT22;31507;51.494;7.518;2023-12-07T03:21:39;0.50;99.90
45807;DHT22;31507;51.494;7.518;2023-12-07T03:24:06;0.40;99.90
45807;DHT22;31507;51.494;7.518;2023-12-07T03:26:31;0.40;99.90
45807;DHT22;31507;51.494;7.518;2023-12-07T03:28:57;0.30;99.90
45807;DHT22;31507;51.494;7.518;2023-12-07T03:31:22;0.20;99.90
45807;DHT22;31507;51.494;7.518;2023-12-07T03:33:48;0.20;99.90
45807;DHT22;31507;51.494;7.518;2023-12-07T03:36:13;0.10;99.90
45807;DHT22;31507;51.494;7.518;2023-12-07T03:38:39;0.00;99.90
45807;DHT22;31507;51.494;7.518;2023-12-07T03:41:04;0.00;99.90
45807;DHT22;31507;51.494;7.518;2023-12-07T03:43:30;-0.10;99.90
45807;DHT22;31507;51.494;7.518;2023-12-07T03:45:55;-0.10;99.90
45807;DHT22;31507;51.494;7.518;2023-12-07T03:48:21;-0.20;99.90
45807;DHT22;31507;51.494;7.518;2023-12-07T03:50:46;-0.30;99.90
45807;DHT22;31507;51.494;7.518;2023-12-07T03:53:12;-0.30;99.90
45807;DHT22;31507;51.494;7.518;2023-12-07T03:55:38;-0.40;99.90
45807;DHT22;31507;51.494;7.518;2023-12-07T03:58:04;-0.50;99.90
45807;DHT22;31507;51.494;7.518;2023-12-07T04:00:31;-0.60;99.90
45807;DHT22;31507;51.494;7.518;2023-12-07T04:02:57;-0.60;99.90
45807;DHT22;31507;51.494;7.518;2023-12-07T04:05:23;-0.60;99.90
45807;DHT22;31507;51.494;7.518;2023-12-07T04:07:48;-0.70;99.90
45807;DHT22;31507;51.494;7.518;2023-12-07T04:10:14;-0.70;99.90
45807;DHT22;31507;51.494;7.518;2023-12-07T04:12:39;-0.80;99.90
45807;DHT22;31507;51.494;7.518;2023-12-07T04:15:05;-0.80;99.90
45807;DHT22;31507;51.494;7.518;2023-12-07T04:17:30;-0.80;99.90
45807;DHT22;31507;51.494;7.518;2023-12-07T04:19:56;-0.90;99.90
45807;DHT22;31507;51.494;7.518;2023-12-07T04:22:21;-0.90;99.90
45807;DHT22;31507;51.494;7.518;2023-12-07T04:24:47;-0.90;99.90
45807;DHT22;31507;51.494;7.518;2023-12-07T04:27:12;-1.00;99.90
45807;DHT22;31507;51.494;7.518;2023-12-07T04:29:38;-1.00;99.90
45807;DHT22;31507;51.494;7.518;2023-12-07T04:32:04;-0.90;99.90
45807;DHT22;31507;51.494;7.518;2023-12-07T04:34:30;-0.80;99.90
45807;DHT22;31507;51.494;7.518;2023-12-07T04:36:55;-0.80;99.90
45807;DHT22;31507;51.494;7.518;2023-12-07T04:39:21;-0.70;99.90
45807;DHT22;31507;51.494;7.518;2023-12-07T04:41:47;-0.70;99.90
45807;DHT22;31507;51.494;7.518;2023-12-07T04:44:12;-0.70;99.90
45807;DHT22;31507;51.494;7.518;2023-12-07T04:46:38;-0.80;99.90
45807;DHT22;31507;51.494;7.518;2023-12-07T04:49:04;-0.80;99.90
45807;DHT22;31507;51.494;7.518;2023-12-07T04:51:30;-0.70;99.90
45807;DHT22;31507;51.494;7.518;2023-12-07T04:53:55;-0.70;99.90
45807;DHT22;31507;51.494;7.518;2023-12-07T04:56:21;-0.70;99.90
45807;DHT22;31507;51.494;7.518;2023-12-07T04:58:46;-0.70;99.90
45807;DHT22;31507;51.494;7.518;2023-12-07T05:01:12;-0.60;99.90
45807;DHT22;31507;51.494;7.518;2023-12-07T05:03:37;-0.50;99.90
45807;DHT22;31507;51.494;7.518;2023-12-07T05:06:03;-0.50;99.90
45807;DHT22;31507;51.494;7.518;2023-12-07T05:08:29;-0.50;99.90
45807;DHT22;31507;51.494;7.518;2023-12-07T05:10:54;-0.50;99.90
45807;DHT22;31507;51.494;7.518;2023-12-07T05:13:20;-0.50;99.90
45807;DHT22;31507;51.494;7.518;2023-12-07T05:15:45;-0.40;99.90
45807;DHT22;31507;51.494;7.518;2023-12-07T05:18:12;-0.40;99.90
45807;DHT22;31507;51.494;7.518;2023-12-07T05:20:37;-0.30;99.90
45807;DHT22;31507;51.494;7.518;2023-12-07T05:23:04;-0.30;99.90
45807;DHT22;31507;51.494;7.518;2023-12-07T05:25:31;-0.20;99.90
45807;DHT22;31507;51.494;7.518;2023-12-07T05:27:57;-0.20;99.90
45807;DHT22;31507;51.494;7.518;2023-12-07T05:30:23;-0.10;99.90
45807;DHT22;31507;51.494;7.518;2023-12-07T05:32:49;0.00;99.90
45807;DHT22;31507;51.494;7.518;2023-12-07T05:35:14;0.10;99.90
45807;DHT22;31507;51.494;7.518;2023-12-07T05:37:40;0.20;99.90
45807;DHT22;31507;51.494;7.518;2023-12-07T05:40:06;0.20;99.90
45807;DHT22;31507;51.494;7.518;2023-12-07T05:42:32;0.20;99.90
45807;DHT22;31507;51.494;7.518;2023-12-07T05:44:57;0.30;99.90
45807;DHT22;31507;51.494;7.518;2023-12-07T05:47:23;0.30;99.90
45807;DHT22;31507;51.494;7.518;2023-12-07T05:49:48;0.30;99.90
45807;DHT22;31507;51.494;7.518;2023-12-07T05:52:14;0.40;99.90
45807;DHT22;31507;51.494;7.518;2023-12-07T05:54:40;0.40;99.90
45807;DHT22;31507;51.494;7.518;2023-12-07T05:57:12;0.40;99.90
45807;DHT22;31507;51.494;7.518;2023-12-07T05:59:38;0.40;99.90
45807;DHT22;31507;51.494;7.518;2023-12-07T06:02:04;0.50;99.90
45807;DHT22;31507;51.494;7.518;2023-12-07T06:04:30;0.60;99.90
45807;DHT22;31507;51.494;7.518;2023-12-07T06:06:55;0.60;99.90
45807;DHT22;31507;51.494;7.518;2023-12-07T06:09:21;0.60;99.90
45807;DHT22;31507;51.494;7.518;2023-12-07T06:11:46;0.60;99.90
45807;DHT22;31507;51.494;7.518;2023-12-07T06:14:12;0.60;99.90
45807;DHT22;31507;51.494;7.518;2023-12-07T06:16:37;0.60;99.90
45807;DHT22;31507;51.494;7.518;2023-12-07T06:19:03;0.60;99.90
45807;DHT22;31507;51.494;7.518;2023-12-07T06:21:29;0.70;99.90
45807;DHT22;31507;51.494;7.518;2023-12-07T06:23:55;0.70;99.90
45807;DHT22;31507;51.494;7.518;2023-12-07T06:26:21;0.70;99.90
45807;DHT22;31507;51.494;7.518;2023-12-07T06:28:47;0.70;99.90
45807;DHT22;31507;51.494;7.518;2023-12-07T06:31:12;0.70;99.90
45807;DHT22;31507;51.494;7.518;2023-12-07T06:33:40;0.70;99.90
45807;DHT22;31507;51.494;7.518;2023-12-07T06:36:05;0.70;99.90
45807;DHT22;31507;51.494;7.518;2023-12-07T06:38:31;0.60;99.90
45807;DHT22;31507;51.494;7.518;2023-12-07T06:40:57;0.60;99.90
45807;DHT22;31507;51.494;7.518;2023-12-07T06:43:23;0.60;99.90
45807;DHT22;31507;51.494;7.518;2023-12-07T06:45:48;0.50;99.90
45807;DHT22;31507;51.494;7.518;2023-12-07T06:48:14;0.50;99.90
45807;DHT22;31507;51.494;7.518;2023-12-07T06:50:39;0.40;99.90
45807;DHT22;31507;51.494;7.518;2023-12-07T06:53:05;0.30;99.90
45807;DHT22;31507;51.494;7.518;2023-12-07T06:55:30;0.30;99.90
45807;DHT22;31507;51.494;7.518;2023-12-07T06:57:56;0.20;99.90
45807;DHT22;31507;51.494;7.518;2023-12-07T07:00:22;0.10;99.90
45807;DHT22;31507;51.494;7.518;2023-12-07T07:02:49;0.00;99.90
45807;DHT22;31507;51.494;7.518;2023-12-07T07:05:15;-0.10;99.90
45807;DHT22;31507;51.494;7.518;2023-12-07T07:07:40;-0.20;99.90
45807;DHT22;31507;51.494;7.518;2023-12-07T07:10:06;-0.30;99.90
45807;DHT22;31507;51.494;7.518;2023-12-07T07:12:35;-0.40;99.90
45807;DHT22;31507;51.494;7.518;2023-12-07T07:15:00;-0.30;99.90
45807;DHT22;31507;51.494;7.518;2023-12-07T07:17:26;-0.30;99.90
45807;DHT22;31507;51.494;7.518;2023-12-07T07:19:54;-0.30;99.90
45807;DHT22;31507;51.494;7.518;2023-12-07T07:22:20;-0.20;99.90
45807;DHT22;31507;51.494;7.518;2023-12-07T07:24:46;-0.20;99.90
45807;DHT22;31507;51.494;7.518;2023-12-07T07:27:12;-0.20;99.90
45807;DHT22;31507;51.494;7.518;2023-12-07T07:29:38;-0.10;99.90
45807;DHT22;31507;51.494;7.518;2023-12-07T07:32:03;-0.10;99.90
45807;DHT22;31507;51.494;7.518;2023-12-07T07:34:29;-0.10;99.90
45807;DHT22;31507;51.494;7.518;2023-12-07T07:36:55;-0.10;99.90
45807;DHT22;31507;51.494;7.518;2023-12-07T07:39:20;0.00;99.90
45807;DHT22;31507;51.494;7.518;2023-12-07T07:41:46;0.00;99.90
45807;DHT22;31507;51.494;7.518;2023-12-07T07:44:11;0.00;99.90
45807;DHT22;31507;51.494;7.518;2023-12-07T07:46:37;0.00;99.90
45807;DHT22;31507;51.494;7.518;2023-12-07T07:49:02;0.10;99.90
45807;DHT22;31507;51.494;7.518;2023-12-07T07:51:29;0.10;99.90
45807;DHT22;31507;51.494;7.518;2023-12-07T07:53:55;0.10;99.90
45807;DHT22;31507;51.494;7.518;2023-12-07T07:56:21;0.10;99.90
45807;DHT22;31507;51.494;7.518;2023-12-07T07:58:47;0.10;99.90
45807;DHT22;31507;51.494;7.518;2023-12-07T08:01:13;0.20;99.90
45807;DHT22;31507;51.494;7.518;2023-12-07T08:03:38;0.20;99.90
45807;DHT22;31507;51.494;7.518;2023-12-07T08:06:04;0.20;99.90
45807;DHT22;31507;51.494;7.518;2023-12-07T08:08:29;0.20;99.90
45807;DHT22;31507;51.494;7.518;2023-12-07T08:10:55;0.30;99.90
45807;DHT22;31507;51.494;7.518;2023-12-07T08:13:20;0.30;99.90
45807;DHT22;31507;51.494;7.518;2023-12-07T08:15:46;0.30;99.90
45807;DHT22;31507;51.494;7.518;2023-12-07T08:18:11;0.40;99.90
45807;DHT22;31507;51.494;7.518;2023-12-07T08:20:37;0.40;99.90
45807;DHT22;31507;51.494;7.518;2023-12-07T08:23:03;0.50;99.90
45807;DHT22;31507;51.494;7.518;2023-12-07T08:25:28;0.60;99.90
45807;DHT22;31507;51.494;7.518;2023-12-07T08:27:54;0.70;99.90
45807;DHT22;31507;51.494;7.518;2023-12-07T08:30:19;0.70;99.90
45807;DHT22;31507;51.494;7.518;2023-12-07T08:32:45;0.80;99.90
45807;DHT22;31507;51.494;7.518;2023-12-07T08:35:11;0.90;99.90
45807;DHT22;31507;51.494;7.518;2023-12-07T08:37:37;1.00;99.90
45807;DHT22;31507;51.494;7.518;2023-12-07T08:40:02;1.10;99.90
45807;DHT22;31507;51.494;7.518;2023-12-07T08:42:28;1.20;99.90
45807;DHT22;31507;51.494;7.518;2023-12-07T08:44:56;1.20;99.90
45807;DHT22;31507;51.494;7.518;2023-12-07T08:47:21;1.30;99.90
45807;DHT22;31507;51.494;7.518;2023-12-07T08:49:47;1.30;99.90
45807;DHT22;31507;51.494;7.518;2023-12-07T08:52:12;1.40;99.90
45807;DHT22;31507;51.494;7.518;2023-12-07T08:54:38;1.50;99.90
45807;DHT22;31507;51.494;7.518;2023-12-07T08:57:03;1.50;99.90
45807;DHT22;31507;51.494;7.518;2023-12-07T08:59:29;1.60;99.90
45807;DHT22;31507;51.494;7.518;2023-12-07T09:01:55;1.60;99.90
45807;DHT22;31507;51.494;7.518;2023-12-07T09:04:21;1.70;99.90
45807;DHT22;31507;51.494;7.518;2023-12-07T09:06:46;1.70;99.90
45807;DHT22;31507;51.494;7.518;2023-12-07T09:09:12;1.80;99.90
45807;DHT22;31507;51.494;7.518;2023-12-07T09:11:37;1.90;99.90
45807;DHT22;31507;51.494;7.518;2023-12-07T09:14:03;2.10;99.90
45807;DHT22;31507;51.494;7.518;2023-12-07T09:16:28;2.50;99.90
45807;DHT22;31507;51.494;7.518;2023-12-07T09:18:54;2.90;99.90
45807;DHT22;31507;51.494;7.518;2023-12-07T09:21:19;3.20;99.90
45807;DHT22;31507;51.494;7.518;2023-12-07T09:23:45;3.30;99.90
45807;DHT22;31507;51.494;7.518;2023-12-07T09:26:10;3.50;99.90
45807;DHT22;31507;51.494;7.518;2023-12-07T09:28:36;3.60;99.90
45807;DHT22;31507;51.494;7.518;2023-12-07T09:31:03;3.60;99.90
45807;DHT22;31507;51.494;7.518;2023-12-07T09:33:28;3.60;99.90
45807;DHT22;31507;51.494;7.518;2023-12-07T09:35:54;3.70;99.90
45807;DHT22;31507;51.494;7.518;2023-12-07T09:38:19;3.90;99.90
45807;DHT22;31507;51.494;7.518;2023-12-07T09:40:45;4.20;99.90
45807;DHT22;31507;51.494;7.518;2023-12-07T09:43:11;4.40;99.90
45807;DHT22;31507;51.494;7.518;2023-12-07T09:45:37;4.50;99.90
45807;DHT22;31507;51.494;7.518;2023-12-07T09:48:03;4.60;99.90
45807;DHT22;31507;51.494;7.518;2023-12-07T09:50:29;4.60;99.90
45807;DHT22;31507;51.494;7.518;2023-12-07T09:52:56;4.60;99.90
45807;DHT22;31507;51.494;7.518;2023-12-07T09:55:22;4.70;99.90
45807;DHT22;31507;51.494;7.518;2023-12-07T09:57:51;4.80;99.90
45807;DHT22;31507;51.494;7.518;2023-12-07T10:00:16;4.90;99.90
45807;DHT22;31507;51.494;7.518;2023-12-07T10:02:44;5.00;99.90
45807;DHT22;31507;51.494;7.518;2023-12-07T10:05:10;5.10;99.90
45807;DHT22;31507;51.494;7.518;2023-12-07T10:07:42;5.20;99.90
45807;DHT22;31507;51.494;7.518;2023-12-07T10:10:08;5.30;99.90
45807;DHT22;31507;51.494;7.518;2023-12-07T10:12:40;5.20;99.90
45807;DHT22;31507;51.494;7.518;2023-12-07T10:15:12;5.30;99.90
45807;DHT22;31507;51.494;7.518;2023-12-07T10:17:48;5.60;99.90
45807;DHT22;31507;51.494;7.518;2023-12-07T10:20:15;5.80;99.90
45807;DHT22;31507;51.494;7.518;2023-12-07T10:22:40;6.00;99.90
45807;DHT22;31507;51.494;7.518;2023-12-07T10:25:07;6.00;99.90
45807;DHT22;31507;51.494;7.518;2023-12-07T10:27:33;5.90;99.90
45807;DHT22;31507;51.494;7.518;2023-12-07T10:29:58;6.10;99.90
45807;DHT22;31507;51.494;7.518;2023-12-07T10:32:24;6.30;99.90
45807;DHT22;31507;51.494;7.518;2023-12-07T10:34:50;6.40;99.90
45807;DHT22;31507;51.494;7.518;2023-12-07T10:37:15;6.40;99.90
45807;DHT22;31507;51.494;7.518;2023-12-07T10:39:41;6.40;99.90
45807;DHT22;31507;51.494;7.518;2023-12-07T10:42:08;6.50;99.90
45807;DHT22;31507;51.494;7.518;2023-12-07T10:44:35;6.50;99.80
45807;DHT22;31507;51.494;7.518;2023-12-07T10:47:05;6.50;98.60
45807;DHT22;31507;51.494;7.518;2023-12-07T10:49:31;6.50;99.90
45807;DHT22;31507;51.494;7.518;2023-12-07T10:51:58;6.70;95.50
45807;DHT22;31507;51.494;7.518;2023-12-07T10:54:30;6.70;98.10
45807;DHT22;31507;51.494;7.518;2023-12-07T10:57:01;6.60;93.40
45807;DHT22;31507;51.494;7.518;2023-12-07T10:59:30;6.40;95.80
45807;DHT22;31507;51.494;7.518;2023-12-07T11:01:56;6.30;95.50
45807;DHT22;31507;51.494;7.518;2023-12-07T11:04:22;6.00;99.90
45807;DHT22;31507;51.494;7.518;2023-12-07T11:06:48;5.70;99.90
45807;DHT22;31507;51.494;7.518;2023-12-07T11:09:19;5.40;99.90
45807;DHT22;31507;51.494;7.518;2023-12-07T11:11:51;5.10;99.90
45807;DHT22;31507;51.494;7.518;2023-12-07T11:14:18;5.00;99.90
45807;DHT22;31507;51.494;7.518;2023-12-07T11:16:45;4.80;99.90
45807;DHT22;31507;51.494;7.518;2023-12-07T11:21:54;4.60;99.90
45807;DHT22;31507;51.494;7.518;2023-12-07T11:24:20;4.60;99.90
45807;DHT22;31507;51.494;7.518;2023-12-07T11:26:48;4.90;99.90
45807;DHT22;31507;51.494;7.518;2023-12-07T11:29:13;5.40;99.90
45807;DHT22;31507;51.494;7.518;2023-12-07T11:31:39;5.70;98.20
45807;DHT22;31507;51.494;7.518;2023-12-07T11:34:07;5.80;99.90
45807;DHT22;31507;51.494;7.518;2023-12-07T11:36:39;5.80;96.50
45807;DHT22;31507;51.494;7.518;2023-12-07T11:41:43;5.60;96.50
45807;DHT22;31507;51.494;7.518;2023-12-07T11:44:11;5.50;99.90
45807;DHT22;31507;51.494;7.518;2023-12-07T11:46:37;5.50;99.90
45807;DHT22;31507;51.494;7.518;2023-12-07T11:49:03;5.40;99.90
45807;DHT22;31507;51.494;7.518;2023-12-07T11:51:29;5.60;99.90
45807;DHT22;31507;51.494;7.518;2023-12-07T11:53:54;5.60;99.90
45807;DHT22;31507;51.494;7.518;2023-12-07T11:56:20;5.60;99.90
45807;DHT22;31507;51.494;7.518;2023-12-07T11:58:46;5.60;99.90
45807;DHT22;31507;51.494;7.518;2023-12-07T12:01:12;5.70;98.90
45807;DHT22;31507;51.494;7.518;2023-12-07T12:03:38;5.70;97.70
45807;DHT22;31507;51.494;7.518;2023-12-07T12:06:04;5.60;95.60
45807;DHT22;31507;51.494;7.518;2023-12-07T12:08:30;5.60;99.90
45807;DHT22;31507;51.494;7.518;2023-12-07T12:10:56;5.50;99.90
45807;DHT22;31507;51.494;7.518;2023-12-07T12:13:33;5.50;99.90
45807;DHT22;31507;51.494;7.518;2023-12-07T12:15:59;5.40;99.90
45807;DHT22;31507;51.494;7.518;2023-12-07T12:18:25;5.40;99.90
45807;DHT22;31507;51.494;7.518;2023-12-07T12:20:51;5.40;99.90
45807;DHT22;31507;51.494;7.518;2023-12-07T12:23:18;5.30;99.90
45807;DHT22;31507;51.494;7.518;2023-12-07T12:25:45;5.30;99.90
45807;DHT22;31507;51.494;7.518;2023-12-07T12:28:11;5.20;99.90
45807;DHT22;31507;51.494;7.518;2023-12-07T12:30:39;5.00;99.90
45807;DHT22;31507;51.494;7.518;2023-12-07T12:33:04;5.00;99.90
45807;DHT22;31507;51.494;7.518;2023-12-07T12:35:30;4.90;99.90
45807;DHT22;31507;51.494;7.518;2023-12-07T12:37:56;4.90;99.90
45807;DHT22;31507;51.494;7.518;2023-12-07T12:40:22;4.80;99.90
45807;DHT22;31507;51.494;7.518;2023-12-07T12:42:48;4.80;99.90
45807;DHT22;31507;51.494;7.518;2023-12-07T12:45:14;4.80;99.90
45807;DHT22;31507;51.494;7.518;2023-12-07T12:47:41;4.80;99.90
45807;DHT22;31507;51.494;7.518;2023-12-07T12:52:57;4.70;99.90
45807;DHT22;31507;51.494;7.518;2023-12-07T12:55:25;4.60;99.90
45807;DHT22;31507;51.494;7.518;2023-12-07T12:57:51;4.70;99.90
45807;DHT22;31507;51.494;7.518;2023-12-07T13:00:16;4.60;99.90
45807;DHT22;31507;51.494;7.518;2023-12-07T13:02:42;4.60;99.90
45807;DHT22;31507;51.494;7.518;2023-12-07T13:05:08;4.50;99.90
45807;DHT22;31507;51.494;7.518;2023-12-07T13:07:33;4.40;99.90
45807;DHT22;31507;51.494;7.518;2023-12-07T13:10:01;4.30;99.90
45807;DHT22;31507;51.494;7.518;2023-12-07T13:12:26;4.30;99.90
45807;DHT22;31507;51.494;7.518;2023-12-07T13:14:53;4.20;99.90
45807;DHT22;31507;51.494;7.518;2023-12-07T13:17:19;4.20;99.90
45807;DHT22;31507;51.494;7.518;2023-12-07T13:19:45;4.20;99.90
45807;DHT22;31507;51.494;7.518;2023-12-07T13:22:19;4.20;99.90
45807;DHT22;31507;51.494;7.518;2023-12-07T13:24:55;4.20;99.90
45807;DHT22;31507;51.494;7.518;2023-12-07T13:27:24;4.30;99.90
45807;DHT22;31507;51.494;7.518;2023-12-07T13:29:49;4.30;99.90
45807;DHT22;31507;51.494;7.518;2023-12-07T13:32:15;4.30;99.90
45807;DHT22;31507;51.494;7.518;2023-12-07T13:34:41;4.30;99.90
45807;DHT22;31507;51.494;7.518;2023-12-07T13:37:06;4.30;99.90
45807;DHT22;31507;51.494;7.518;2023-12-07T13:39:31;4.20;99.90
45807;DHT22;31507;51.494;7.518;2023-12-07T13:42:00;4.30;99.90
45807;DHT22;31507;51.494;7.518;2023-12-07T13:44:26;4.20;99.90
45807;DHT22;31507;51.494;7.518;2023-12-07T13:46:51;4.20;99.90
45807;DHT22;31507;51.494;7.518;2023-12-07T13:49:19;4.10;99.90
45807;DHT22;31507;51.494;7.518;2023-12-07T13:51:45;4.10;99.90
45807;DHT22;31507;51.494;7.518;2023-12-07T13:54:11;4.00;99.90
45807;DHT22;31507;51.494;7.518;2023-12-07T13:56:37;3.90;99.90
45807;DHT22;31507;51.494;7.518;2023-12-07T13:59:03;3.80;99.90
45807;DHT22;31507;51.494;7.518;2023-12-07T14:01:34;3.80;99.90
45807;DHT22;31507;51.494;7.518;2023-12-07T14:04:00;3.70;99.90
45807;DHT22;31507;51.494;7.518;2023-12-07T14:06:27;3.70;99.90
45807;DHT22;31507;51.494;7.518;2023-12-07T14:08:52;3.60;99.90
45807;DHT22;31507;51.494;7.518;2023-12-07T14:11:18;3.60;99.90
45807;DHT22;31507;51.494;7.518;2023-12-07T14:13:44;3.60;99.90
45807;DHT22;31507;51.494;7.518;2023-12-07T14:16:12;3.50;99.90
45807;DHT22;31507;51.494;7.518;2023-12-07T14:18:37;3.50;99.90
45807;DHT22;31507;51.494;7.518;2023-12-07T14:21:03;3.40;99.90
45807;DHT22;31507;51.494;7.518;2023-12-07T14:23:29;3.40;99.90
45807;DHT22;31507;51.494;7.518;2023-12-07T14:25:54;3.30;99.90
45807;DHT22;31507;51.494;7.518;2023-12-07T14:28:24;3.20;99.90
45807;DHT22;31507;51.494;7.518;2023-12-07T14:30:49;3.10;99.90
45807;DHT22;31507;51.494;7.518;2023-12-07T14:33:15;3.00;99.90
45807;DHT22;31507;51.494;7.518;2023-12-07T14:35:40;2.90;99.90
45807;DHT22;31507;51.494;7.518;2023-12-07T14:38:06;2.90;99.90
45807;DHT22;31507;51.494;7.518;2023-12-07T14:40:31;2.80;99.90
45807;DHT22;31507;51.494;7.518;2023-12-07T14:42:57;2.70;99.90
45807;DHT22;31507;51.494;7.518;2023-12-07T14:45:22;2.60;99.90
45807;DHT22;31507;51.494;7.518;2023-12-07T14:47:48;2.50;99.90
45807;DHT22;31507;51.494;7.518;2023-12-07T14:50:14;2.40;99.90
45807;DHT22;31507;51.494;7.518;2023-12-07T14:52:39;2.30;99.90
45807;DHT22;31507;51.494;7.518;2023-12-07T14:55:05;2.20;99.90
45807;DHT22;31507;51.494;7.518;2023-12-07T14:57:33;2.20;99.90
45807;DHT22;31507;51.494;7.518;2023-12-07T15:00:00;2.10;99.90
45807;DHT22;31507;51.494;7.518;2023-12-07T15:02:25;2.00;99.90
45807;DHT22;31507;51.494;7.518;2023-12-07T15:04:51;1.90;99.90
45807;DHT22;31507;51.494;7.518;2023-12-07T15:07:16;1.80;99.90
45807;DHT22;31507;51.494;7.518;2023-12-07T15:09:42;1.80;99.90
45807;DHT22;31507;51.494;7.518;2023-12-07T15:12:07;1.70;99.90
45807;DHT22;31507;51.494;7.518;2023-12-07T15:14:33;1.70;99.90
45807;DHT22;31507;51.494;7.518;2023-12-07T15:17:01;1.70;99.90
45807;DHT22;31507;51.494;7.518;2023-12-07T15:19:27;1.60;99.90
45807;DHT22;31507;51.494;7.518;2023-12-07T15:21:53;1.60;99.90
45807;DHT22;31507;51.494;7.518;2023-12-07T15:24:18;1.50;99.90
45807;DHT22;31507;51.494;7.518;2023-12-07T15:26:45;1.50;99.90
45807;DHT22;31507;51.494;7.518;2023-12-07T15:29:11;1.50;99.90
45807;DHT22;31507;51.494;7.518;2023-12-07T15:31:37;1.50;99.90
45807;DHT22;31507;51.494;7.518;2023-12-07T15:34:03;1.50;99.90
45807;DHT22;31507;51.494;7.518;2023-12-07T15:36:35;1.50;99.90
45807;DHT22;31507;51.494;7.518;2023-12-07T15:39:00;1.50;99.90
45807;DHT22;31507;51.494;7.518;2023-12-07T15:41:26;1.40;99.90
45807;DHT22;31507;51.494;7.518;2023-12-07T15:43:52;1.40;99.90
45807;DHT22;31507;51.494;7.518;2023-12-07T15:46:18;1.30;99.90
45807;DHT22;31507;51.494;7.518;2023-12-07T15:48:44;1.30;99.90